createdAt,value
2017-07-25T00:02:07.595Z,13.90
2017-07-25T00:04:35.446Z,13.92
2017-07-25T00:07:03.125Z,13.89
2017-07-25T00:09:30.980Z,13.89
2017-07-25T00:11:58.807Z,13.93
2017-07-25T00:14:26.560Z,13.95
2017-07-25T00:16:54.338Z,13.98
2017-07-25T00:19:22.121Z,13.78
2017-07-25T00:21:49.923Z,13.78
2017-07-25T00:24:17.740Z,13.71
2017-07-25T00:26:45.526Z,13.72
2017-07-25T00:29:13.266Z,13.64
2017-07-25T00:31:41.005Z,13.53
2017-07-25T00:34:08.798Z,13.54
2017-07-25T00:36:36.629Z,13.52
2017-07-25T00:39:04.476Z,13.42
2017-07-25T00:41:32.186Z,13.49
2017-07-25T00:43:59.931Z,13.47
2017-07-25T00:46:27.697Z,13.42
2017-07-25T00:48:55.406Z,13.33
2017-07-25T00:51:23.184Z,13.32
2017-07-25T00:53:50.853Z,13.32
2017-07-25T00:56:18.545Z,13.12
2017-07-25T00:58:46.325Z,13.17
2017-07-25T01:01:14.073Z,13.09
2017-07-25T01:03:41.778Z,13.01
2017-07-25T01:06:09.633Z,12.89
2017-07-25T01:08:37.446Z,12.98
2017-07-25T01:11:05.145Z,12.93
2017-07-25T01:13:32.911Z,12.90
2017-07-25T01:16:00.605Z,12.80
2017-07-25T01:18:28.355Z,12.76
2017-07-25T01:20:56.108Z,12.66
2017-07-25T01:23:23.851Z,12.80
2017-07-25T01:25:51.531Z,12.87
2017-07-25T01:28:19.240Z,12.85
2017-07-25T01:30:47.025Z,12.75
2017-07-25T01:33:14.733Z,12.79
2017-07-25T01:35:42.434Z,12.64
2017-07-25T01:38:10.202Z,12.53
2017-07-25T01:40:37.952Z,12.61
2017-07-25T01:43:05.674Z,12.63
2017-07-25T01:45:33.446Z,12.53
2017-07-25T01:48:01.429Z,12.52
2017-07-25T01:50:29.338Z,12.45
2017-07-25T01:52:57.125Z,12.56
2017-07-25T01:55:24.933Z,12.49
2017-07-25T01:57:52.653Z,12.48
2017-07-25T02:00:20.442Z,12.49
2017-07-25T02:02:48.252Z,12.42
2017-07-25T02:05:15.929Z,12.44
2017-07-25T02:07:43.646Z,12.43
2017-07-25T02:10:11.420Z,12.42
2017-07-25T02:12:39.127Z,12.46
2017-07-25T02:15:06.975Z,12.24
2017-07-25T02:17:34.792Z,12.34
2017-07-25T02:20:02.571Z,12.41
2017-07-25T02:22:30.319Z,12.39
2017-07-25T02:24:58.048Z,12.42
2017-07-25T02:27:25.796Z,12.48
2017-07-25T02:29:53.638Z,12.45
2017-07-25T02:32:21.546Z,12.28
2017-07-25T02:34:49.289Z,12.33
2017-07-25T02:37:18.239Z,12.33
2017-07-25T02:39:45.994Z,12.41
2017-07-25T02:42:13.872Z,12.46
2017-07-25T02:44:41.617Z,12.45
2017-07-25T02:47:09.396Z,12.46
2017-07-25T02:49:37.145Z,12.39
2017-07-25T02:52:04.989Z,12.41
2017-07-25T02:54:32.861Z,12.35
2017-07-25T02:57:00.681Z,12.34
2017-07-25T02:59:28.498Z,12.37
2017-07-25T03:01:56.198Z,12.36
2017-07-25T03:04:24.870Z,12.40
2017-07-25T03:06:52.672Z,12.38
2017-07-25T03:09:20.438Z,12.27
2017-07-25T03:11:48.168Z,12.31
2017-07-25T03:14:15.852Z,12.33
2017-07-25T03:16:43.605Z,12.28
2017-07-25T03:19:11.420Z,12.34
2017-07-25T03:21:39.134Z,12.33
2017-07-25T03:24:06.912Z,12.33
2017-07-25T03:26:34.626Z,12.42
2017-07-25T03:29:02.411Z,12.42
2017-07-25T03:31:30.103Z,12.38
2017-07-25T03:33:57.961Z,12.35
2017-07-25T03:36:25.688Z,12.37
2017-07-25T03:38:53.782Z,12.32
2017-07-25T03:41:21.561Z,12.36
2017-07-25T03:43:49.260Z,12.34
2017-07-25T03:46:16.970Z,12.36
2017-07-25T03:48:44.737Z,12.45
2017-07-25T03:51:12.534Z,12.43
2017-07-25T03:53:40.240Z,12.46
2017-07-25T03:56:08.021Z,12.46
2017-07-25T03:58:35.672Z,12.51
2017-07-25T04:01:03.369Z,12.60
2017-07-25T04:03:31.131Z,12.64
2017-07-25T04:05:58.861Z,12.24
2017-07-25T04:08:26.706Z,12.39
2017-07-25T04:10:54.501Z,12.43
2017-07-25T04:13:22.239Z,12.43
2017-07-25T04:15:49.996Z,12.46
2017-07-25T04:18:17.778Z,12.52
2017-07-25T04:20:45.517Z,12.60
2017-07-25T04:23:13.271Z,12.60
2017-07-25T04:25:40.976Z,12.66
2017-07-25T04:28:08.739Z,12.69
2017-07-25T04:30:36.442Z,12.66
2017-07-25T04:33:04.161Z,12.69
2017-07-25T04:35:31.944Z,12.74
2017-07-25T04:37:59.656Z,12.75
2017-07-25T04:40:27.437Z,12.83
2017-07-25T04:42:55.198Z,12.82
2017-07-25T04:45:22.877Z,12.77
2017-07-25T04:47:50.652Z,12.83
2017-07-25T04:50:18.405Z,12.93
2017-07-25T04:52:47.001Z,12.94
2017-07-25T04:55:14.803Z,12.95
2017-07-25T04:57:42.561Z,12.98
2017-07-25T05:00:10.271Z,13.34
2017-07-25T05:02:38.038Z,13.04
2017-07-25T05:05:05.836Z,12.96
2017-07-25T05:07:33.541Z,13.03
2017-07-25T05:10:01.244Z,12.89
2017-07-25T05:12:29.069Z,13.06
2017-07-25T05:14:56.841Z,13.07
2017-07-25T05:17:24.581Z,13.07
2017-07-25T05:19:52.350Z,13.07
2017-07-25T05:22:20.148Z,13.20
2017-07-25T05:24:47.951Z,13.15
2017-07-25T05:27:15.697Z,13.19
2017-07-25T05:29:43.513Z,13.18
2017-07-25T05:32:11.215Z,13.17
2017-07-25T05:34:38.982Z,13.20
2017-07-25T05:37:06.811Z,13.20
2017-07-25T05:39:34.692Z,13.20
2017-07-25T05:42:02.398Z,13.21
2017-07-25T05:44:30.152Z,13.22
2017-07-25T05:46:58.546Z,13.14
2017-07-25T05:49:26.276Z,13.14
2017-07-25T05:51:54.040Z,13.26
2017-07-25T05:54:21.857Z,13.34
2017-07-25T05:56:49.560Z,13.11
2017-07-25T05:59:17.281Z,13.06
2017-07-25T06:01:45.043Z,13.11
2017-07-25T06:04:12.803Z,13.23
2017-07-25T06:06:40.589Z,13.39
2017-07-25T06:09:08.304Z,13.52
2017-07-25T06:11:36.026Z,13.68
2017-07-25T06:14:03.791Z,13.83
2017-07-25T06:16:31.500Z,13.98
2017-07-25T06:18:59.242Z,14.13
2017-07-25T06:21:26.990Z,13.98
2017-07-25T06:23:54.750Z,14.08
2017-07-25T06:26:22.835Z,14.06
2017-07-25T06:28:50.521Z,14.18
2017-07-25T06:31:18.253Z,14.25
2017-07-25T06:33:46.079Z,14.34
2017-07-25T06:36:13.852Z,14.16
2017-07-25T06:38:41.597Z,14.29
2017-07-25T06:41:09.306Z,14.36
2017-07-25T06:43:37.044Z,14.52
2017-07-25T06:46:04.757Z,14.61
2017-07-25T06:48:32.625Z,14.64
2017-07-25T06:51:00.312Z,14.68
2017-07-25T06:53:28.098Z,14.70
2017-07-25T06:55:55.858Z,14.84
2017-07-25T06:58:23.693Z,14.93
2017-07-25T07:00:51.378Z,14.93
2017-07-25T07:03:19.164Z,15.15
2017-07-25T07:05:46.875Z,15.11
2017-07-25T07:08:14.684Z,14.87
2017-07-25T07:10:42.453Z,15.14
2017-07-25T07:13:10.216Z,15.35
2017-07-25T07:15:37.970Z,15.30
2017-07-25T07:18:05.804Z,15.34
2017-07-25T07:20:33.583Z,15.47
2017-07-25T07:23:01.336Z,15.42
2017-07-25T07:25:29.046Z,15.28
2017-07-25T07:27:56.871Z,15.28
2017-07-25T07:30:24.589Z,15.48
2017-07-25T07:32:52.350Z,15.22
2017-07-25T07:35:20.058Z,15.36
2017-07-25T07:37:47.902Z,15.40
2017-07-25T07:40:15.658Z,15.49
2017-07-25T07:42:43.397Z,15.48
2017-07-25T07:45:11.148Z,15.53
2017-07-25T07:47:38.853Z,15.79
2017-07-25T07:50:06.595Z,15.71
2017-07-25T07:52:34.395Z,15.79
2017-07-25T07:55:02.266Z,15.77
2017-07-25T07:57:30.131Z,15.86
2017-07-25T07:59:57.898Z,16.00
2017-07-25T08:02:25.590Z,16.07
2017-07-25T08:04:53.356Z,16.22
2017-07-25T08:07:21.065Z,16.21
2017-07-25T08:09:48.829Z,16.10
2017-07-25T08:12:16.742Z,16.35
2017-07-25T08:14:44.508Z,16.03
2017-07-25T08:17:12.307Z,16.02
2017-07-25T08:19:40.009Z,16.01
2017-07-25T08:22:07.749Z,15.88
2017-07-25T08:24:35.547Z,16.07
2017-07-25T08:27:03.257Z,16.24
2017-07-25T08:29:31.066Z,16.23
2017-07-25T08:31:58.766Z,16.22
2017-07-25T08:34:26.597Z,16.39
2017-07-25T08:36:54.298Z,16.08
2017-07-25T08:39:22.008Z,16.21
2017-07-25T08:41:49.794Z,16.18
2017-07-25T08:44:17.516Z,16.33
2017-07-25T08:46:45.294Z,16.27
2017-07-25T08:49:13.006Z,16.08
2017-07-25T08:51:41.584Z,16.03
2017-07-25T08:54:09.344Z,16.14
2017-07-25T08:56:37.187Z,16.22
2017-07-25T08:59:04.949Z,16.41
2017-07-25T09:01:32.653Z,16.62
2017-07-25T09:04:00.467Z,16.84
2017-07-25T09:06:28.195Z,16.74
2017-07-25T09:08:55.982Z,17.11
2017-07-25T09:11:23.683Z,17.13
2017-07-25T09:13:51.487Z,17.37
2017-07-25T09:16:19.287Z,17.27
2017-07-25T09:18:47.106Z,17.50
2017-07-25T09:21:14.832Z,17.52
2017-07-25T09:23:58.182Z,17.47
2017-07-25T09:26:25.953Z,17.52
2017-07-25T09:28:53.666Z,17.47
2017-07-25T09:31:21.360Z,17.85
2017-07-25T09:33:49.168Z,17.48
2017-07-25T09:36:16.971Z,17.69
2017-07-25T09:38:44.721Z,17.75
2017-07-25T09:41:12.533Z,17.80
2017-07-25T09:43:40.310Z,17.70
2017-07-25T09:46:08.090Z,17.71
2017-07-25T09:48:35.845Z,18.16
2017-07-25T09:51:03.680Z,18.20
2017-07-25T09:53:31.503Z,18.44
2017-07-25T09:55:59.236Z,18.36
2017-07-25T09:58:28.046Z,18.19
2017-07-25T10:00:55.877Z,17.99
2017-07-25T10:03:23.569Z,18.31
2017-07-25T10:05:51.345Z,18.27
2017-07-25T10:08:19.231Z,18.09
2017-07-25T10:10:47.016Z,18.26
2017-07-25T10:13:14.851Z,18.37
2017-07-25T10:15:42.542Z,18.68
2017-07-25T10:18:10.347Z,18.68
2017-07-25T10:20:38.033Z,19.12
2017-07-25T10:23:05.727Z,19.06
2017-07-25T10:25:33.496Z,19.34
2017-07-25T10:28:01.493Z,19.49
2017-07-25T10:30:29.290Z,19.00
2017-07-25T10:32:57.002Z,19.73
2017-07-25T10:35:24.691Z,19.22
2017-07-25T10:37:53.595Z,19.47
2017-07-25T10:40:21.379Z,19.66
2017-07-25T10:42:49.172Z,19.45
2017-07-25T10:45:17.193Z,18.85
2017-07-25T10:47:44.939Z,19.45
2017-07-25T10:50:12.635Z,19.57
2017-07-25T10:52:40.333Z,19.64
2017-07-25T10:55:08.162Z,19.56
2017-07-25T10:57:35.868Z,19.69
2017-07-25T11:00:04.489Z,19.84
2017-07-25T11:02:32.683Z,19.87
2017-07-25T11:05:00.496Z,19.75
2017-07-25T11:07:28.174Z,19.99
2017-07-25T11:09:55.939Z,19.30
2017-07-25T11:12:23.749Z,18.80
2017-07-25T11:14:51.524Z,19.01
2017-07-25T11:17:19.238Z,18.79
2017-07-25T11:19:47.028Z,18.62
2017-07-25T11:22:14.827Z,18.55
2017-07-25T11:24:42.538Z,18.69
2017-07-25T11:27:10.254Z,18.45
2017-07-25T11:29:38.010Z,18.53
2017-07-25T11:32:05.719Z,18.73
2017-07-25T11:34:33.663Z,18.77
2017-07-25T11:37:01.401Z,18.78
2017-07-25T11:39:29.124Z,18.85
2017-07-25T11:41:56.840Z,18.80
2017-07-25T11:44:24.566Z,18.63
2017-07-25T11:46:52.340Z,19.18
2017-07-25T11:49:20.059Z,19.50
2017-07-25T11:51:47.898Z,19.81
2017-07-25T11:54:15.630Z,20.02
2017-07-25T11:56:43.434Z,19.75
2017-07-25T11:59:11.149Z,19.67
2017-07-25T12:01:38.921Z,20.03
2017-07-25T12:04:06.682Z,20.29
2017-07-25T12:06:34.424Z,20.05
2017-07-25T12:09:02.325Z,20.21
2017-07-25T12:11:30.120Z,20.60
2017-07-25T12:13:57.892Z,20.53
2017-07-25T12:16:25.621Z,20.56
2017-07-25T12:18:53.367Z,20.51
2017-07-25T12:21:47.896Z,20.51
2017-07-25T12:24:15.666Z,20.07
2017-07-25T12:26:43.493Z,20.32
2017-07-25T12:29:11.363Z,20.01
2017-07-25T12:31:39.065Z,20.45
2017-07-25T12:34:06.800Z,20.79
2017-07-25T12:36:35.497Z,20.77
2017-07-25T12:39:03.290Z,20.62
2017-07-25T12:41:31.013Z,20.32
2017-07-25T12:43:58.772Z,20.92
2017-07-25T12:46:26.519Z,21.21
2017-07-25T12:48:54.311Z,21.46
2017-07-25T12:51:22.091Z,21.10
2017-07-25T12:53:50.012Z,21.04
2017-07-25T12:56:17.783Z,20.63
2017-07-25T12:58:45.540Z,20.54
2017-07-25T13:01:25.276Z,20.64
2017-07-25T13:03:54.385Z,20.81
2017-07-25T13:06:22.170Z,20.12
2017-07-25T13:08:49.983Z,20.50
2017-07-25T13:11:17.690Z,20.85
2017-07-25T13:13:45.481Z,21.25
2017-07-25T13:16:13.270Z,21.17
2017-07-25T13:18:40.980Z,21.19
2017-07-25T13:21:08.724Z,21.36
2017-07-25T13:23:36.502Z,21.45
2017-07-25T13:26:04.298Z,21.17
2017-07-25T13:28:32.138Z,21.08
2017-07-25T13:31:00.030Z,21.24
2017-07-25T13:33:27.856Z,21.10
2017-07-25T13:35:55.652Z,21.20
2017-07-25T13:38:23.460Z,21.03
2017-07-25T13:40:51.178Z,21.12
2017-07-25T13:43:18.932Z,21.00
2017-07-25T13:45:46.695Z,21.51
2017-07-25T13:48:14.486Z,21.17
2017-07-25T13:50:42.206Z,21.12
2017-07-25T13:53:09.974Z,21.10
2017-07-25T13:55:37.779Z,21.35
2017-07-25T13:58:05.517Z,20.97
2017-07-25T14:00:33.231Z,21.00
2017-07-25T14:03:01.103Z,21.07
2017-07-25T14:05:28.802Z,21.05
2017-07-25T14:07:56.510Z,21.24
2017-07-25T14:10:24.246Z,21.15
2017-07-25T14:12:51.980Z,21.06
2017-07-25T14:15:19.889Z,20.61
2017-07-25T14:17:47.597Z,20.59
2017-07-25T14:20:15.291Z,20.56
2017-07-25T14:22:43.172Z,20.39
2017-07-25T14:25:10.865Z,20.75
2017-07-25T14:27:38.570Z,20.48
2017-07-25T14:30:06.321Z,20.73
2017-07-25T14:32:34.063Z,20.75
2017-07-25T14:35:01.830Z,20.63
2017-07-25T14:37:29.538Z,20.88
2017-07-25T14:39:57.334Z,20.67
2017-07-25T14:42:25.047Z,20.59
2017-07-25T14:44:52.750Z,20.65
2017-07-25T14:47:21.057Z,20.75
2017-07-25T14:49:48.773Z,20.73
2017-07-25T14:52:16.550Z,21.10
2017-07-25T14:54:44.281Z,21.11
2017-07-25T14:57:12.059Z,20.63
2017-07-25T14:59:39.819Z,20.77
2017-07-25T15:02:07.569Z,20.33
2017-07-25T15:04:35.362Z,20.56
2017-07-25T15:07:03.133Z,20.22
2017-07-25T15:09:32.062Z,20.38
2017-07-25T15:11:59.800Z,20.65
2017-07-25T15:14:27.648Z,20.47
2017-07-25T15:16:55.370Z,20.68
2017-07-25T15:19:23.053Z,20.69
2017-07-25T15:21:50.845Z,20.01
2017-07-25T15:24:18.593Z,19.80
2017-07-25T15:26:46.413Z,19.80
2017-07-25T15:29:14.124Z,19.92
2017-07-25T15:31:43.088Z,19.77
2017-07-25T15:34:10.820Z,19.64
2017-07-25T15:36:38.692Z,19.85
2017-07-25T15:39:06.509Z,19.77
2017-07-25T15:41:34.282Z,19.84
2017-07-25T15:44:01.992Z,20.09
2017-07-25T15:46:29.792Z,19.71
2017-07-25T15:48:58.618Z,19.27
2017-07-25T15:51:26.429Z,19.06
2017-07-25T15:53:54.183Z,18.96
2017-07-25T15:56:22.047Z,18.94
2017-07-25T15:58:49.824Z,19.29
2017-07-25T16:01:17.525Z,19.29
2017-07-25T16:03:45.232Z,19.35
2017-07-25T16:06:12.972Z,19.29
2017-07-25T16:08:40.705Z,18.97
2017-07-25T16:11:08.429Z,18.98
2017-07-25T16:13:37.011Z,18.83
2017-07-25T16:16:04.782Z,18.84
2017-07-25T16:18:32.533Z,18.37
2017-07-25T16:21:00.256Z,18.44
2017-07-25T16:23:28.028Z,18.39
2017-07-25T16:25:55.805Z,18.63
2017-07-25T16:28:23.515Z,18.56
2017-07-25T16:30:51.299Z,18.33
2017-07-25T16:33:19.070Z,18.26
2017-07-25T16:35:46.782Z,18.23
2017-07-25T16:38:14.730Z,18.14
2017-07-25T16:40:42.582Z,18.29
2017-07-25T16:43:10.416Z,18.24
2017-07-25T16:45:38.157Z,18.08
2017-07-25T16:48:05.863Z,17.99
2017-07-25T16:50:33.620Z,17.99
2017-07-25T16:53:01.331Z,17.94
2017-07-25T16:55:29.033Z,17.88
2017-07-25T16:57:56.891Z,17.91
2017-07-25T17:00:24.647Z,17.77
2017-07-25T17:02:52.445Z,17.80
2017-07-25T17:05:20.228Z,17.85
2017-07-25T17:07:47.951Z,17.85
2017-07-25T17:10:15.811Z,17.83
2017-07-25T17:12:43.564Z,17.81
2017-07-25T17:15:11.302Z,17.63
2017-07-25T17:17:39.054Z,17.49
2017-07-25T17:20:06.784Z,17.49
2017-07-25T17:22:34.467Z,17.40
2017-07-25T17:25:02.275Z,17.52
2017-07-25T17:27:29.999Z,17.19
2017-07-25T17:29:57.749Z,17.16
2017-07-25T17:32:25.585Z,16.90
2017-07-25T17:34:53.345Z,16.84
2017-07-25T17:37:21.024Z,16.88
2017-07-25T17:39:48.821Z,16.78
2017-07-25T17:42:16.590Z,16.79
2017-07-25T17:44:44.686Z,16.75
2017-07-25T17:47:12.431Z,16.81
2017-07-25T17:49:40.142Z,16.85
2017-07-25T17:52:07.898Z,16.96
2017-07-25T17:54:35.835Z,17.00
2017-07-25T17:57:03.537Z,16.82
2017-07-25T17:59:31.551Z,16.81
2017-07-25T18:01:59.416Z,16.87
2017-07-25T18:04:27.502Z,16.78
2017-07-25T18:06:55.295Z,16.70
2017-07-25T18:09:23.167Z,16.76
2017-07-25T18:11:51.124Z,16.66
2017-07-25T18:14:18.927Z,16.78
2017-07-25T18:16:46.807Z,16.81
2017-07-25T18:19:14.807Z,16.71
2017-07-25T18:21:42.853Z,16.75
2017-07-25T18:24:10.772Z,16.59
2017-07-25T18:26:38.799Z,16.66
2017-07-25T18:29:06.597Z,16.42
2017-07-25T18:31:35.119Z,16.44
2017-07-25T18:34:02.939Z,16.41
2017-07-25T18:36:30.930Z,16.43
2017-07-25T18:38:58.970Z,16.31
2017-07-25T18:41:26.744Z,16.29
2017-07-25T18:43:54.699Z,16.30
2017-07-25T18:46:22.874Z,16.28
2017-07-25T18:48:50.646Z,16.21
2017-07-25T18:51:18.567Z,16.13
2017-07-25T18:53:46.607Z,15.93
2017-07-25T18:56:14.570Z,16.02
2017-07-25T18:58:43.376Z,16.01
2017-07-25T19:01:12.028Z,15.98
2017-07-25T19:03:40.681Z,16.01
2017-07-25T19:06:08.435Z,16.07
2017-07-25T19:08:36.270Z,16.13
2017-07-25T19:11:05.221Z,16.09
2017-07-25T19:13:32.976Z,15.91
2017-07-25T19:16:00.732Z,15.97
2017-07-25T19:18:28.628Z,15.99
2017-07-25T19:20:56.755Z,16.02
2017-07-25T19:23:24.538Z,15.86
2017-07-25T19:25:52.487Z,15.79
2017-07-25T19:28:21.433Z,15.85
2017-07-25T19:30:49.334Z,15.81
2017-07-25T19:33:17.216Z,15.73
2017-07-25T19:35:45.343Z,15.65
2017-07-25T19:38:13.146Z,15.60
2017-07-25T19:40:41.079Z,15.61
2017-07-25T19:43:10.567Z,15.55
2017-07-25T19:45:38.421Z,15.45
2017-07-25T19:48:07.347Z,15.40
2017-07-25T19:50:35.349Z,15.46
2017-07-25T19:53:03.306Z,15.47
2017-07-25T19:55:31.231Z,15.42
2017-07-25T19:57:59.106Z,15.37
2017-07-25T20:00:27.730Z,15.43
2017-07-25T20:02:55.650Z,15.46
2017-07-25T20:05:23.385Z,15.39
2017-07-25T20:07:51.121Z,15.36
2017-07-25T20:10:18.900Z,15.42
2017-07-25T20:12:46.685Z,15.42
2017-07-25T20:15:14.455Z,15.41
2017-07-25T20:17:42.228Z,15.38
2017-07-25T20:20:09.999Z,15.41
2017-07-25T20:22:37.793Z,15.45
2017-07-25T20:25:05.517Z,15.43
2017-07-25T20:27:33.346Z,15.41
2017-07-25T20:30:01.033Z,15.33
2017-07-25T20:32:28.755Z,15.45
2017-07-25T20:34:57.405Z,15.51
2017-07-25T20:37:25.094Z,15.44
2017-07-25T20:39:52.888Z,15.30
2017-07-25T20:42:20.639Z,15.48
2017-07-25T20:44:48.399Z,15.25
2017-07-25T20:47:16.175Z,15.26
2017-07-25T20:49:43.946Z,15.34
2017-07-25T20:52:11.701Z,15.22
2017-07-25T20:54:39.464Z,15.22
2017-07-25T20:57:07.303Z,15.28
2017-07-25T20:59:35.019Z,15.25
2017-07-25T21:02:02.742Z,15.34
2017-07-25T21:04:30.524Z,15.31
2017-07-25T21:06:58.290Z,15.36
2017-07-25T21:09:26.064Z,15.29
2017-07-25T21:11:53.819Z,15.12
2017-07-25T21:14:22.573Z,15.11
2017-07-25T21:16:50.280Z,14.98
2017-07-25T21:19:18.068Z,15.07
2017-07-25T21:21:45.834Z,15.14
2017-07-25T21:24:13.570Z,15.23
2017-07-25T21:26:41.747Z,15.18
2017-07-25T21:29:09.466Z,15.10
2017-07-25T21:31:37.320Z,15.09
2017-07-25T21:34:05.036Z,15.22
2017-07-25T21:36:32.746Z,15.14
2017-07-25T21:39:01.456Z,15.15
2017-07-25T21:41:29.176Z,15.05
2017-07-25T21:43:57.006Z,15.13
2017-07-25T21:46:24.809Z,15.12
2017-07-25T21:48:52.567Z,15.04
2017-07-25T21:51:20.341Z,14.98
2017-07-25T21:53:48.156Z,15.13
2017-07-25T21:56:16.571Z,15.07
2017-07-25T21:58:44.275Z,15.03
2017-07-25T22:01:23.660Z,14.89
2017-07-25T22:04:03.192Z,15.00
2017-07-25T22:06:30.959Z,14.99
2017-07-25T22:08:58.746Z,15.03
2017-07-25T22:11:26.443Z,14.95
2017-07-25T22:13:55.168Z,14.90
2017-07-25T22:16:22.850Z,14.85
2017-07-25T22:18:50.519Z,14.86
2017-07-25T22:21:18.344Z,14.88
2017-07-25T22:23:46.112Z,15.02
2017-07-25T22:26:13.852Z,15.04
2017-07-25T22:28:41.793Z,14.98
2017-07-25T22:31:09.662Z,15.03
2017-07-25T22:33:37.460Z,15.01
2017-07-25T22:36:05.381Z,15.02
2017-07-25T22:38:33.259Z,14.80
2017-07-25T22:41:00.977Z,14.87
2017-07-25T22:43:28.821Z,14.71
2017-07-25T22:45:56.611Z,14.71
2017-07-25T22:48:24.550Z,14.71
2017-07-25T22:50:52.322Z,14.66
2017-07-25T22:53:20.013Z,14.71
2017-07-25T22:55:47.810Z,14.71
2017-07-25T22:58:15.612Z,14.67
2017-07-25T23:00:43.451Z,14.64
2017-07-25T23:03:11.180Z,14.57
2017-07-25T23:05:38.881Z,14.58
2017-07-25T23:08:06.608Z,14.57
2017-07-25T23:10:34.293Z,14.51
2017-07-25T23:13:02.017Z,14.45
2017-07-25T23:15:30.504Z,14.43
2017-07-25T23:17:58.193Z,14.46
2017-07-25T23:20:25.906Z,14.41
2017-07-25T23:22:53.671Z,14.45
2017-07-25T23:25:21.355Z,14.44
2017-07-25T23:27:49.177Z,14.45
2017-07-25T23:30:16.863Z,14.50
2017-07-25T23:32:44.622Z,14.40
2017-07-25T23:35:12.434Z,14.48
2017-07-25T23:37:40.174Z,14.40
2017-07-25T23:40:07.886Z,14.32
2017-07-25T23:42:35.653Z,14.46
2017-07-25T23:45:03.363Z,14.35
2017-07-25T23:47:31.147Z,14.34
2017-07-25T23:49:59.726Z,14.25
2017-07-25T23:52:27.415Z,14.32
2017-07-25T23:54:55.120Z,14.24
2017-07-25T23:57:22.902Z,14.11
2017-07-25T23:59:50.610Z,14.07
